sensor_id;sensor_type;location;lat;lon;timestamp;temperature;humidity
30467;DHT22;17258;52.560;13.046;2023-12-20T00:05:51;12.30;70.80
30467;DHT22;17258;52.560;13.046;2023-12-20T00:15:52;12.30;70.80
30467;DHT22;17258;52.560;13.046;2023-12-20T00:25:53;12.30;71.00
30467;DHT22;17258;52.560;13.046;2023-12-20T00:35:54;12.20;70.90
30467;DHT22;17258;52.560;13.046;2023-12-20T00:45:57;12.20;71.10
30467;DHT22;17258;52.560;13.046;2023-12-20T00:56:03;12.20;71.10
30467;DHT22;17258;52.560;13.046;2023-12-20T01:06:04;12.20;71.20
30467;DHT22;17258;52.560;13.046;2023-12-20T01:16:05;12.10;71.10
30467;DHT22;17258;52.560;13.046;2023-12-20T01:26:06;12.20;71.20
30467;DHT22;17258;52.560;13.046;2023-12-20T01:36:07;12.20;71.10
30467;DHT22;17258;52.560;13.046;2023-12-20T01:46:08;12.20;71.10
30467;DHT22;17258;52.560;13.046;2023-12-20T01:56:09;12.30;71.10
30467;DHT22;17258;52.560;13.046;2023-12-20T02:06:10;12.30;71.10
30467;DHT22;17258;52.560;13.046;2023-12-20T02:16:11;12.30;71.00
30467;DHT22;17258;52.560;13.046;2023-12-20T02:26:12;12.30;71.00
30467;DHT22;17258;52.560;13.046;2023-12-20T02:36:14;12.30;70.90
30467;DHT22;17258;52.560;13.046;2023-12-20T02:46:15;12.30;71.00
30467;DHT22;17258;52.560;13.046;2023-12-20T02:56:17;12.30;71.10
30467;DHT22;17258;52.560;13.046;2023-12-20T03:06:18;12.20;71.00
30467;DHT22;17258;52.560;13.046;2023-12-20T03:16:19;12.20;71.00
30467;DHT22;17258;52.560;13.046;2023-12-20T03:26:20;12.20;71.00
30467;DHT22;17258;52.560;13.046;2023-12-20T03:36:20;12.10;70.90
30467;DHT22;17258;52.560;13.046;2023-12-20T03:46:21;12.10;70.90
30467;DHT22;17258;52.560;13.046;2023-12-20T03:56:22;12.00;70.80
30467;DHT22;17258;52.560;13.046;2023-12-20T04:06:22;11.90;70.60
30467;DHT22;17258;52.560;13.046;2023-12-20T04:16:23;11.90;70.50
30467;DHT22;17258;52.560;13.046;2023-12-20T04:26:24;11.90;70.40
30467;DHT22;17258;52.560;13.046;2023-12-20T04:36:24;11.70;70.10
30467;DHT22;17258;52.560;13.046;2023-12-20T04:46:27;11.60;70.00
30467;DHT22;17258;52.560;13.046;2023-12-20T04:56:27;11.40;70.00
30467;DHT22;17258;52.560;13.046;2023-12-20T05:06:28;11.30;70.10
30467;DHT22;17258;52.560;13.046;2023-12-20T05:16:29;11.10;70.10
30467;DHT22;17258;52.560;13.046;2023-12-20T05:26:29;10.90;70.00
30467;DHT22;17258;52.560;13.046;2023-12-20T05:36:30;10.80;70.70
30467;DHT22;17258;52.560;13.046;2023-12-20T05:46:31;10.70;69.80
30467;DHT22;17258;52.560;13.046;2023-12-20T05:56:32;10.50;69.70
30467;DHT22;17258;52.560;13.046;2023-12-20T06:06:32;10.40;69.80
30467;DHT22;17258;52.560;13.046;2023-12-20T06:16:33;10.30;69.90
30467;DHT22;17258;52.560;13.046;2023-12-20T06:26:34;10.20;69.90
30467;DHT22;17258;52.560;13.046;2023-12-20T06:36:34;10.10;70.10
30467;DHT22;17258;52.560;13.046;2023-12-20T06:46:35;10.10;70.20
30467;DHT22;17258;52.560;13.046;2023-12-20T06:56:36;10.10;70.50
30467;DHT22;17258;52.560;13.046;2023-12-20T07:06:37;10.10;70.70
30467;DHT22;17258;52.560;13.046;2023-12-20T07:16:37;10.10;71.00
30467;DHT22;17258;52.560;13.046;2023-12-20T07:26:38;10.10;71.20
30467;DHT22;17258;52.560;13.046;2023-12-20T07:36:39;10.10;71.30
30467;DHT22;17258;52.560;13.046;2023-12-20T07:46:40;10.10;71.20
30467;DHT22;17258;52.560;13.046;2023-12-20T07:56:41;10.20;71.20
30467;DHT22;17258;52.560;13.046;2023-12-20T08:06:42;10.20;71.50
30467;DHT22;17258;52.560;13.046;2023-12-20T08:16:42;10.30;71.50
30467;DHT22;17258;52.560;13.046;2023-12-20T08:26:43;10.30;71.30
30467;DHT22;17258;52.560;13.046;2023-12-20T08:36:43;10.40;71.40
30467;DHT22;17258;52.560;13.046;2023-12-20T08:46:44;10.40;71.60
30467;DHT22;17258;52.560;13.046;2023-12-20T08:56:45;10.40;71.40
30467;DHT22;17258;52.560;13.046;2023-12-20T09:06:46;10.50;71.70
30467;DHT22;17258;52.560;13.046;2023-12-20T09:16:47;10.60;71.70
30467;DHT22;17258;52.560;13.046;2023-12-20T09:26:47;10.60;71.60
30467;DHT22;17258;52.560;13.046;2023-12-20T09:36:48;10.70;71.60
30467;DHT22;17258;52.560;13.046;2023-12-20T09:46:49;10.80;71.50
30467;DHT22;17258;52.560;13.046;2023-12-20T09:56:51;10.90;71.40
30467;DHT22;17258;52.560;13.046;2023-12-20T10:06:51;11.00;71.30
30467;DHT22;17258;52.560;13.046;2023-12-20T10:16:52;11.00;71.10
30467;DHT22;17258;52.560;13.046;2023-12-20T10:27:04;11.10;71.00
30467;DHT22;17258;52.560;13.046;2023-12-20T10:37:06;11.20;70.80
30467;DHT22;17258;52.560;13.046;2023-12-20T10:47:06;11.20;70.80
30467;DHT22;17258;52.560;13.046;2023-12-20T10:57:08;11.30;70.70
30467;DHT22;17258;52.560;13.046;2023-12-20T11:07:21;11.30;70.50
30467;DHT22;17258;52.560;13.046;2023-12-20T11:17:26;11.40;70.70
30467;DHT22;17258;52.560;13.046;2023-12-20T11:27:27;11.40;70.70
30467;DHT22;17258;52.560;13.046;2023-12-20T11:37:29;11.50;70.50
30467;DHT22;17258;52.560;13.046;2023-12-20T11:47:35;11.60;70.50
30467;DHT22;17258;52.560;13.046;2023-12-20T11:57:36;11.60;70.40
30467;DHT22;17258;52.560;13.046;2023-12-20T12:07:37;11.70;70.50
30467;DHT22;17258;52.560;13.046;2023-12-20T12:17:38;11.70;70.40
30467;DHT22;17258;52.560;13.046;2023-12-20T12:27:42;11.70;70.10
30467;DHT22;17258;52.560;13.046;2023-12-20T12:37:43;11.70;70.00
30467;DHT22;17258;52.560;13.046;2023-12-20T12:47:45;11.70;70.10
30467;DHT22;17258;52.560;13.046;2023-12-20T12:57:46;11.60;70.20
30467;DHT22;17258;52.560;13.046;2023-12-20T13:07:46;11.50;70.40
30467;DHT22;17258;52.560;13.046;2023-12-20T13:17:48;11.30;70.80
30467;DHT22;17258;52.560;13.046;2023-12-20T13:27:49;11.20;70.50
30467;DHT22;17258;52.560;13.046;2023-12-20T13:37:50;11.10;70.30
30467;DHT22;17258;52.560;13.046;2023-12-20T13:47:51;11.00;70.20
30467;DHT22;17258;52.560;13.046;2023-12-20T13:57:51;10.90;69.90
30467;DHT22;17258;52.560;13.046;2023-12-20T14:07:52;10.80;69.70
30467;DHT22;17258;52.560;13.046;2023-12-20T14:17:53;10.60;69.40
30467;DHT22;17258;52.560;13.046;2023-12-20T14:27:56;10.50;69.20
30467;DHT22;17258;52.560;13.046;2023-12-20T14:37:57;10.40;69.40
30467;DHT22;17258;52.560;13.046;2023-12-20T14:47:58;10.30;69.50
30467;DHT22;17258;52.560;13.046;2023-12-20T14:57:59;10.20;69.50
30467;DHT22;17258;52.560;13.046;2023-12-20T15:08:01;10.20;69.50
30467;DHT22;17258;52.560;13.046;2023-12-20T15:18:04;10.10;69.70
30467;DHT22;17258;52.560;13.046;2023-12-20T15:28:05;10.10;69.70
30467;DHT22;17258;52.560;13.046;2023-12-20T15:38:06;10.00;69.70
30467;DHT22;17258;52.560;13.046;2023-12-20T15:48:06;10.00;69.80
30467;DHT22;17258;52.560;13.046;2023-12-20T15:58:08;9.90;69.70
30467;DHT22;17258;52.560;13.046;2023-12-20T16:08:09;9.90;69.70
30467;DHT22;17258;52.560;13.046;2023-12-20T16:18:09;9.80;69.60
30467;DHT22;17258;52.560;13.046;2023-12-20T16:28:11;9.80;69.60
30467;DHT22;17258;52.560;13.046;2023-12-20T16:38:12;9.70;69.40
30467;DHT22;17258;52.560;13.046;2023-12-20T16:48:12;9.70;69.40
30467;DHT22;17258;52.560;13.046;2023-12-20T16:58:13;9.60;69.40
30467;DHT22;17258;52.560;13.046;2023-12-20T17:08:15;9.60;69.60
30467;DHT22;17258;52.560;13.046;2023-12-20T17:18:15;9.60;69.80
30467;DHT22;17258;52.560;13.046;2023-12-20T17:28:16;9.60;70.20
30467;DHT22;17258;52.560;13.046;2023-12-20T17:38:17;9.70;70.20
30467;DHT22;17258;52.560;13.046;2023-12-20T17:48:17;9.70;70.30
30467;DHT22;17258;52.560;13.046;2023-12-20T17:58:18;9.90;70.30
30467;DHT22;17258;52.560;13.046;2023-12-20T18:08:19;10.00;70.10
30467;DHT22;17258;52.560;13.046;2023-12-20T18:18:19;10.10;69.90
30467;DHT22;17258;52.560;13.046;2023-12-20T18:28:20;10.20;69.80
30467;DHT22;17258;52.560;13.046;2023-12-20T18:38:21;10.20;69.70
30467;DHT22;17258;52.560;13.046;2023-12-20T18:48:28;10.30;69.50
30467;DHT22;17258;52.560;13.046;2023-12-20T18:58:29;10.30;69.50
30467;DHT22;17258;52.560;13.046;2023-12-20T19:08:31;10.40;69.40
30467;DHT22;17258;52.560;13.046;2023-12-20T19:18:32;10.40;69.30
30467;DHT22;17258;52.560;13.046;2023-12-20T19:28:33;10.40;69.40
30467;DHT22;17258;52.560;13.046;2023-12-20T19:38:35;10.30;69.30
30467;DHT22;17258;52.560;13.046;2023-12-20T19:48:36;10.40;69.50
30467;DHT22;17258;52.560;13.046;2023-12-20T19:58:36;10.40;69.40
30467;DHT22;17258;52.560;13.046;2023-12-20T20:08:37;10.40;69.10
30467;DHT22;17258;52.560;13.046;2023-12-20T20:18:38;10.40;69.20
30467;DHT22;17258;52.560;13.046;2023-12-20T20:28:38;10.40;69.00
30467;DHT22;17258;52.560;13.046;2023-12-20T20:38:39;10.30;68.90
30467;DHT22;17258;52.560;13.046;2023-12-20T20:48:40;10.30;69.00
30467;DHT22;17258;52.560;13.046;2023-12-20T20:58:40;10.30;69.00
30467;DHT22;17258;52.560;13.046;2023-12-20T21:08:41;10.20;69.00
30467;DHT22;17258;52.560;13.046;2023-12-20T21:18:42;10.20;69.10
30467;DHT22;17258;52.560;13.046;2023-12-20T21:28:44;10.10;69.20
30467;DHT22;17258;52.560;13.046;2023-12-20T21:38:45;10.10;69.30
30467;DHT22;17258;52.560;13.046;2023-12-20T21:48:45;10.10;69.40
30467;DHT22;17258;52.560;13.046;2023-12-20T21:58:46;10.10;69.30
30467;DHT22;17258;52.560;13.046;2023-12-20T22:08:47;10.10;69.30
30467;DHT22;17258;52.560;13.046;2023-12-20T22:18:47;10.00;69.40
30467;DHT22;17258;52.560;13.046;2023-12-20T22:28:48;10.10;69.40
30467;DHT22;17258;52.560;13.046;2023-12-20T22:38:49;10.10;69.40
30467;DHT22;17258;52.560;13.046;2023-12-20T22:48:50;10.10;69.40
30467;DHT22;17258;52.560;13.046;2023-12-20T22:58:50;10.10;69.40
30467;DHT22;17258;52.560;13.046;2023-12-20T23:08:51;10.10;69.40
30467;DHT22;17258;52.560;13.046;2023-12-20T23:18:52;10.10;69.40
30467;DHT22;17258;52.560;13.046;2023-12-20T23:28:52;10.10;69.40
30467;DHT22;17258;52.560;13.046;2023-12-20T23:38:53;10.10;69.40
30467;DHT22;17258;52.560;13.046;2023-12-20T23:48:54;10.10;69.40
30467;DHT22;17258;52.560;13.046;2023-12-20T23:58:54;10.10;69.50
